createdAt,value
2022-08-17T00:01:52.777Z,97639.16
2022-08-17T00:06:57.775Z,97651.38
2022-08-17T00:12:41.471Z,97660.91
2022-08-17T00:17:30.939Z,97660.78
2022-08-17T00:22:36.647Z,97661.44
2022-08-17T00:27:42.542Z,97673.16
2022-08-17T00:33:12.397Z,97692.00
2022-08-17T00:38:14.413Z,97685.22
2022-08-17T00:43:27.407Z,97673.41
2022-08-17T00:48:33.027Z,97678.09
2022-08-17T00:53:52.511Z,97667.91
2022-08-17T00:58:59.298Z,97650.00
2022-08-17T01:04:05.237Z,97668.91
2022-08-17T01:09:09.874Z,97682.31
2022-08-17T01:14:15.515Z,97684.22
2022-08-17T01:19:26.305Z,97688.72
2022-08-17T01:24:34.162Z,97683.06
2022-08-17T01:29:42.058Z,97690.53
2022-08-17T01:34:50.337Z,97689.53
2022-08-17T01:40:05.718Z,97689.72
2022-08-17T01:45:17.782Z,97711.28
2022-08-17T01:50:27.691Z,97718.22
2022-08-17T01:55:42.058Z,97716.44
2022-08-17T02:01:00.864Z,97719.78
2022-08-17T02:06:27.042Z,97718.59
2022-08-17T02:11:37.769Z,97719.03
2022-08-17T02:16:43.664Z,97739.63
2022-08-17T02:21:52.916Z,97732.03
2022-08-17T02:26:58.663Z,97751.81
2022-08-17T02:32:03.131Z,97761.63
2022-08-17T02:37:08.558Z,97758.47
2022-08-17T02:42:16.096Z,97774.56
2022-08-17T02:47:20.510Z,97771.09
2022-08-17T02:52:42.828Z,97772.41
2022-08-17T02:57:50.437Z,97783.00
2022-08-17T03:02:55.025Z,97761.19
2022-08-17T03:08:00.009Z,97746.81
2022-08-17T03:13:06.080Z,97741.97
2022-08-17T03:18:14.411Z,97737.63
2022-08-17T03:23:30.297Z,97731.25
2022-08-17T03:28:36.353Z,97714.47
2022-08-17T03:33:40.658Z,97720.03
2022-08-17T03:38:45.092Z,97732.59
2022-08-17T03:43:50.836Z,97718.13
2022-08-17T03:49:12.877Z,97726.63
2022-08-17T03:54:34.646Z,97752.81
2022-08-17T03:59:41.305Z,97755.44
2022-08-17T04:04:45.834Z,97771.78
2022-08-17T04:09:50.934Z,97787.19
2022-08-17T04:14:56.730Z,97813.72
2022-08-17T04:20:01.175Z,97818.72
2022-08-17T04:25:10.796Z,97796.78
2022-08-17T04:30:17.048Z,97756.09
2022-08-17T04:35:24.281Z,97751.06
2022-08-17T04:40:47.706Z,97741.59
2022-08-17T04:45:58.228Z,97720.44
2022-08-17T04:51:03.623Z,97722.28
2022-08-17T04:56:16.164Z,97715.00
2022-08-17T05:01:25.990Z,97701.53
2022-08-17T05:06:31.358Z,97690.56
2022-08-17T05:11:37.721Z,97697.97
2022-08-17T05:16:45.640Z,97717.84
2022-08-17T05:21:51.328Z,97710.97
2022-08-17T05:26:55.646Z,97692.94
2022-08-17T05:32:39.571Z,97684.59
2022-08-17T05:37:34.982Z,97702.13
2022-08-17T05:42:39.626Z,97700.56
2022-08-17T05:47:48.525Z,97704.75
2022-08-17T05:53:05.151Z,97691.22
2022-08-17T05:58:24.036Z,97704.72
2022-08-17T06:03:49.107Z,97698.91
2022-08-17T06:09:06.653Z,97708.38
2022-08-17T06:14:43.187Z,97698.84
2022-08-17T06:19:55.909Z,97705.81
2022-08-17T06:25:10.000Z,97703.31
2022-08-17T06:30:21.112Z,97697.50
2022-08-17T06:35:38.861Z,97692.16
2022-08-17T06:41:03.699Z,97683.53
2022-08-17T06:46:14.593Z,97681.97
2022-08-17T06:51:31.790Z,97676.91
2022-08-17T06:56:54.566Z,97671.03
2022-08-17T07:02:08.328Z,97661.19
2022-08-17T07:07:38.293Z,97681.13
2022-08-17T07:12:47.018Z,97693.50
2022-08-17T07:17:52.438Z,97682.66
2022-08-17T07:23:14.766Z,97691.16
2022-08-17T07:28:24.603Z,97688.09
2022-08-17T07:33:33.290Z,97701.19
2022-08-17T07:38:58.642Z,97701.06
2022-08-17T07:44:03.139Z,97697.06
2022-08-17T07:49:33.653Z,97694.91
2022-08-17T07:54:42.811Z,97692.16
2022-08-17T08:00:23.906Z,97701.78
2022-08-17T08:05:55.280Z,97705.81
2022-08-17T08:11:09.131Z,97726.69
2022-08-17T08:16:27.603Z,97738.03
2022-08-17T08:21:59.195Z,97760.38
2022-08-17T08:27:25.318Z,97772.47
2022-08-17T08:32:54.013Z,97780.59
2022-08-17T08:38:16.546Z,97815.53
2022-08-17T08:43:37.433Z,97850.84
2022-08-17T08:49:14.472Z,97879.59
2022-08-17T08:54:36.611Z,97906.63
2022-08-17T08:59:57.916Z,97948.16
2022-08-17T09:05:16.619Z,97912.00
2022-08-17T09:10:30.642Z,97875.31
2022-08-17T09:15:46.183Z,97858.59
2022-08-17T09:21:00.001Z,97843.31
2022-08-17T09:26:22.980Z,97830.69
2022-08-17T09:31:48.842Z,97832.13
2022-08-17T09:37:08.805Z,97830.81
2022-08-17T09:42:45.370Z,97829.31
2022-08-17T09:48:02.019Z,97803.03
2022-08-17T09:53:06.798Z,97808.16
2022-08-17T09:58:29.215Z,97798.59
2022-08-17T10:04:06.556Z,97802.63
2022-08-17T10:09:52.133Z,97810.22
2022-08-17T10:15:26.411Z,97821.59
2022-08-17T10:20:49.066Z,97823.38
2022-08-17T10:26:46.192Z,97817.78
2022-08-17T10:32:12.574Z,97826.28
2022-08-17T10:38:11.489Z,97842.81
2022-08-17T10:44:35.408Z,97816.59
2022-08-17T10:57:41.316Z,97801.09
2022-08-17T11:03:05.010Z,97804.25
2022-08-17T11:09:15.501Z,97805.38
2022-08-17T11:14:44.013Z,97803.19
2022-08-17T11:20:20.123Z,97787.53
2022-08-17T11:25:38.477Z,97774.03
2022-08-17T11:30:51.912Z,97762.47
2022-08-17T11:36:13.795Z,97768.16
2022-08-17T11:41:30.359Z,97774.94
2022-08-17T11:47:17.534Z,97782.50
2022-08-17T11:52:46.002Z,97770.28
2022-08-17T11:58:01.670Z,97743.97
2022-08-17T12:03:55.315Z,97743.28
2022-08-17T12:09:16.970Z,97739.06
2022-08-17T12:14:45.367Z,97739.56
2022-08-17T12:19:53.380Z,97725.38
2022-08-17T12:25:13.436Z,97716.66
2022-08-17T12:30:23.071Z,97708.84
2022-08-17T12:35:38.866Z,97713.72
2022-08-17T12:40:55.723Z,97704.25
2022-08-17T12:46:13.155Z,97707.56
2022-08-17T12:51:24.349Z,97713.78
2022-08-17T12:56:31.319Z,97709.50
2022-08-17T13:01:38.776Z,97691.47
2022-08-17T13:06:52.279Z,97674.78
2022-08-17T13:12:06.158Z,97663.44
2022-08-17T13:17:13.647Z,97656.47
2022-08-17T13:22:25.957Z,97654.66
2022-08-17T13:27:31.611Z,97629.63
2022-08-17T13:32:44.053Z,97624.03
2022-08-17T13:38:03.145Z,97612.38
2022-08-17T13:43:07.720Z,97599.75
2022-08-17T13:48:30.174Z,97588.75
2022-08-17T13:54:09.698Z,97576.75
2022-08-17T13:59:18.024Z,97545.44
2022-08-17T14:04:45.911Z,97563.47
2022-08-17T14:09:57.028Z,97564.59
2022-08-17T14:15:02.258Z,97547.88
2022-08-17T14:20:13.675Z,97572.44
2022-08-17T14:25:23.171Z,97624.00
2022-08-17T14:31:38.671Z,97688.41
2022-08-17T14:37:24.959Z,97731.59
2022-08-17T14:42:37.305Z,97760.81
2022-08-17T14:47:43.285Z,97753.84
2022-08-17T14:52:50.401Z,97778.03
2022-08-17T14:57:58.680Z,97787.66
2022-08-17T15:03:05.379Z,97738.81
2022-08-17T15:08:09.900Z,97686.94
2022-08-17T15:13:59.633Z,97649.34
2022-08-17T15:19:24.367Z,97686.44
2022-08-17T15:25:44.545Z,97698.78
2022-08-17T15:31:18.179Z,97694.78
2022-08-17T15:36:22.832Z,97682.00
2022-08-17T15:41:29.343Z,97702.50
2022-08-17T15:46:35.664Z,97701.03
2022-08-17T15:51:41.323Z,97705.59
2022-08-17T15:56:46.266Z,97706.88
2022-08-17T16:03:13.177Z,97686.03
2022-08-17T16:07:20.889Z,97693.50
2022-08-17T16:12:28.943Z,97689.00
2022-08-17T16:17:40.592Z,97664.06
2022-08-17T16:22:47.215Z,97684.00
2022-08-17T16:27:53.321Z,97672.69
2022-08-17T16:33:03.557Z,97671.16
2022-08-17T16:38:08.028Z,97662.97
2022-08-17T16:43:12.495Z,97643.59
2022-08-17T16:48:18.461Z,97623.78
2022-08-17T16:53:22.934Z,97630.78
2022-08-17T16:58:27.347Z,97634.94
2022-08-17T17:03:33.820Z,97642.75
2022-08-17T17:08:44.928Z,97655.66
2022-08-17T17:13:57.821Z,97638.00
2022-08-17T17:19:15.070Z,97643.44
2022-08-17T17:24:32.634Z,97654.44
2022-08-17T17:29:52.784Z,97675.69
2022-08-17T17:35:09.527Z,97679.69
2022-08-17T17:40:24.307Z,97684.19
2022-08-17T17:45:38.700Z,97701.56
2022-08-17T17:50:56.047Z,97726.56
2022-08-17T17:56:18.777Z,97775.50
2022-08-17T18:01:53.991Z,97789.34
2022-08-17T18:07:17.540Z,97810.75
2022-08-17T18:12:37.712Z,97828.91
2022-08-17T18:18:13.096Z,97805.97
2022-08-17T18:23:21.350Z,97817.34
2022-08-17T18:28:34.683Z,97834.44
2022-08-17T18:33:41.132Z,97861.31
2022-08-17T18:38:47.080Z,97894.00
2022-08-17T18:44:07.207Z,97913.38
2022-08-17T18:49:29.883Z,97890.53
2022-08-17T18:54:39.129Z,97893.84
2022-08-17T18:59:48.231Z,97897.66
2022-08-17T19:05:07.461Z,97900.63
2022-08-17T19:10:29.376Z,97869.81
2022-08-17T19:15:42.362Z,97884.63
2022-08-17T19:20:57.661Z,97933.75
2022-08-17T19:26:54.051Z,97958.31
2022-08-17T19:31:46.663Z,97969.59
2022-08-17T19:37:01.196Z,97989.28
2022-08-17T19:42:17.182Z,98001.06
2022-08-17T19:47:54.392Z,98038.22
2022-08-17T19:53:10.854Z,98036.06
2022-08-17T19:58:48.160Z,98050.59
2022-08-17T20:04:04.537Z,98051.78
2022-08-17T20:09:21.183Z,98057.50
2022-08-17T20:14:37.549Z,98060.50
2022-08-17T20:19:53.287Z,98055.81
2022-08-17T20:25:12.218Z,98054.84
2022-08-17T20:30:38.412Z,98070.59
2022-08-17T20:36:06.215Z,98080.75
2022-08-17T20:41:20.885Z,98085.63
2022-08-17T20:46:57.138Z,98095.97
2022-08-17T20:52:08.862Z,98080.88
2022-08-17T20:57:55.321Z,98071.06
2022-08-17T21:03:50.681Z,98081.88
2022-08-17T21:09:20.268Z,98099.06
2022-08-17T21:15:00.510Z,98093.13
2022-08-17T21:20:26.445Z,98087.94
2022-08-17T21:26:02.521Z,98094.66
2022-08-17T21:31:10.743Z,98094.13
2022-08-17T21:36:28.205Z,98094.53
2022-08-17T21:41:47.613Z,98087.41
2022-08-17T21:46:54.670Z,98065.66
2022-08-17T21:52:02.381Z,98073.50
2022-08-17T21:57:17.773Z,98061.50
2022-08-17T22:02:26.371Z,98046.94
2022-08-17T22:07:43.852Z,98045.09
2022-08-17T22:13:05.901Z,98034.84
2022-08-17T22:18:29.182Z,98031.81
2022-08-17T22:23:56.166Z,98023.13
2022-08-17T22:29:01.625Z,98021.69
2022-08-17T22:34:15.804Z,98018.28
2022-08-17T22:39:42.084Z,98000.91
2022-08-17T22:44:50.556Z,98019.44
2022-08-17T22:49:59.600Z,98013.03
2022-08-17T22:55:35.037Z,98016.31
2022-08-17T23:00:43.736Z,98042.78
2022-08-17T23:06:04.353Z,98045.84
2022-08-17T23:11:10.295Z,98049.34
2022-08-17T23:16:14.865Z,98042.47
2022-08-17T23:21:27.429Z,98034.38
2022-08-17T23:26:39.167Z,98034.50
2022-08-17T23:31:43.823Z,98036.63
2022-08-17T23:36:53.181Z,98029.50
2022-08-17T23:42:01.468Z,98026.34
2022-08-17T23:47:07.776Z,98026.34
2022-08-17T23:52:16.654Z,98018.34
2022-08-17T23:57:33.726Z,98020.19
